Time;durP1;ratioP1;P1;durP2;ratioP2;P2;SDS_P1;SDS_P2;PMS_P1;PMS_P2;Temp;Humidity;BMP_temperature;BMP_pressure;BME280_temperature;BME280_humidity;BME280_pressure;Samples;Min_cycle;Max_cycle;Signal;HPM_P1;HPM_P2
2023/04/11 00:01:31;;;;;;;4.40;1.52;;;;;;;13.82;64.69;100858.88;5028471;28;20372;-58
2023/04/11 00:03:57;;;;;;;5.32;1.92;;;;;;;13.83;64.19;100859.72;5031338;28;20033;-58
2023/04/11 00:06:24;;;;;;;3.47;1.55;;;;;;;13.83;64.29;100862.38;5025239;28;20041;-58
2023/04/11 00:08:50;;;;;;;5.20;1.75;;;;;;;13.83;64.50;100847.16;5028457;28;20105;-58
2023/04/11 00:11:15;;;;;;;5.72;1.70;;;;;;;13.83;64.48;100860.56;5024761;28;20109;-57
2023/04/11 00:13:41;;;;;;;5.57;1.73;;;;;;;13.82;64.34;100858.88;5025183;28;20112;-58
2023/04/11 00:16:08;;;;;;;4.88;1.92;;;;;;;13.83;64.41;100857.88;5022526;28;20510;-58
2023/04/11 00:18:35;;;;;;;5.05;1.60;;;;;;;13.82;64.60;100856.19;5025387;28;20519;-58
2023/04/11 00:21:03;;;;;;;7.28;2.05;;;;;;;13.82;64.03;100858.88;5025201;28;20037;-58
2023/04/11 00:23:28;;;;;;;5.38;1.60;;;;;;;13.82;64.05;100863.34;5025122;28;20080;-58
2023/04/11 00:25:54;;;;;;;4.60;1.60;;;;;;;13.83;64.51;100857.03;5025203;28;20396;-58
2023/04/11 00:28:19;;;;;;;5.70;1.85;;;;;;;13.82;64.32;100863.34;5025928;28;20037;-58
2023/04/11 00:30:44;;;;;;;5.63;1.73;;;;;;;13.82;64.10;100866.91;5024986;28;20039;-58
2023/04/11 00:33:10;;;;;;;5.20;2.13;;;;;;;13.82;64.08;100868.69;5027740;28;20375;-58
2023/04/11 00:35:36;;;;;;;6.15;2.47;;;;;;;13.83;63.94;100865.06;5024996;28;20476;-58
2023/04/11 00:38:02;;;;;;;6.95;2.28;;;;;;;13.82;64.21;100871.38;5025022;28;20045;-58
2023/04/11 00:40:28;;;;;;;5.38;1.67;;;;;;;13.81;64.18;100869.69;5024710;28;20030;-58
2023/04/11 00:42:55;;;;;;;8.80;2.72;;;;;;;13.81;64.03;100880.38;5024778;28;20037;-58
2023/04/11 00:45:20;;;;;;;5.55;2.30;;;;;;;13.82;64.08;100876.72;5025335;28;20156;-58
2023/04/11 00:47:46;;;;;;;6.25;2.08;;;;;;;13.82;63.95;100872.25;5027282;28;20120;-57
2023/04/11 00:50:12;;;;;;;4.63;2.05;;;;;;;13.82;64.37;100876.72;5024707;28;20025;-58
2023/04/11 00:52:38;;;;;;;7.15;2.25;;;;;;;13.81;64.20;100875.88;5024919;28;20033;-58
2023/04/11 00:55:06;;;;;;;6.82;2.45;;;;;;;13.81;63.95;100873.19;5024740;28;20386;-58
2023/04/11 00:57:32;;;;;;;7.13;2.33;;;;;;;13.81;64.30;100872.34;5020907;28;20022;-58
2023/04/11 00:59:59;;;;;;;5.28;1.80;;;;;;;13.81;63.91;100869.69;5026649;28;20412;-58
2023/04/11 01:02:25;;;;;;;7.70;2.40;;;;;;;13.81;64.11;100869.69;5023429;28;20107;-57
2023/04/11 01:04:50;;;;;;;5.63;2.00;;;;;;;13.80;64.20;100870.63;5028825;28;20539;-58
2023/04/11 01:07:17;;;;;;;6.65;2.30;;;;;;;13.80;64.15;100866.16;5024063;28;20105;-58
2023/04/11 01:09:44;;;;;;;7.32;2.42;;;;;;;13.81;63.85;100869.69;5024238;28;20041;-58
2023/04/11 01:12:11;;;;;;;8.32;3.08;;;;;;;13.80;64.24;100870.63;5024492;28;20052;-58
2023/04/11 01:14:37;;;;;;;10.10;2.45;;;;;;;13.80;63.95;100866.16;5024010;28;20037;-58
2023/04/11 01:17:03;;;;;;;9.23;2.83;;;;;;;13.80;64.09;100867.97;5024153;28;20399;-58
2023/04/11 01:19:29;;;;;;;10.38;2.85;;;;;;;13.79;63.69;100867.13;5024036;28;20030;-58
2023/04/11 01:21:56;;;;;;;9.73;2.58;;;;;;;13.80;63.79;100867.97;5023078;28;20044;-58
2023/04/11 01:24:22;;;;;;;8.50;2.22;;;;;;;13.79;63.38;100867.13;5024503;28;20041;-58
2023/04/11 01:26:47;;;;;;;8.18;2.42;;;;;;;13.79;63.98;100864.44;5024051;28;20431;-58
2023/04/11 01:29:13;;;;;;;6.90;2.35;;;;;;;13.79;63.80;100866.28;5023782;28;20060;-58
2023/04/11 01:31:38;;;;;;;7.78;2.03;;;;;;;13.80;63.88;100867.97;5026204;28;20045;-58
2023/04/11 01:34:04;;;;;;;9.02;3.25;;;;;;;13.79;63.88;100872.47;5023566;28;20041;-57
2023/04/11 01:36:31;;;;;;;7.95;2.28;;;;;;;13.80;63.71;100873.31;5026227;28;20041;-58
2023/04/11 01:38:57;;;;;;;9.48;2.75;;;;;;;13.79;63.91;100874.31;5023597;28;20033;-58
2023/04/11 01:41:24;;;;;;;7.45;2.17;;;;;;;13.79;64.02;100868.94;5024983;28;20036;-58
2023/04/11 01:43:50;;;;;;;7.60;2.00;;;;;;;13.78;63.99;100881.44;5026227;28;20384;-58
2023/04/11 01:46:16;;;;;;;8.00;2.67;;;;;;;13.79;63.70;100885.00;5023446;28;20029;-58
2023/04/11 01:48:42;;;;;;;6.70;2.17;;;;;;;13.79;64.04;100890.34;5021997;28;20033;-58
2023/04/11 01:51:07;;;;;;;8.27;2.42;;;;;;;13.79;63.86;100890.34;5023393;28;20026;-58
2023/04/11 01:53:33;;;;;;;7.22;2.45;;;;;;;13.79;63.58;100895.72;5023315;28;20391;-58
2023/04/11 01:55:58;;;;;;;7.53;2.78;;;;;;;13.78;63.79;100897.50;5023424;28;20029;-58
2023/04/11 01:58:24;;;;;;;5.43;2.40;;;;;;;13.77;63.94;100901.16;5023577;28;20037;-57
2023/04/11 02:00:49;;;;;;;8.57;2.33;;;;;;;13.78;63.64;100894.00;5023295;28;20033;-58
2023/04/11 02:03:16;;;;;;;7.07;2.63;;;;;;;13.78;63.83;100907.38;5023957;28;20042;-58
2023/04/11 02:05:42;;;;;;;7.68;2.55;;;;;;;13.77;63.72;100906.53;5025202;28;20036;-58
2023/04/11 02:08:07;;;;;;;7.20;2.90;;;;;;;13.79;63.79;100911.78;5022968;28;20033;-58
2023/04/11 02:10:33;;;;;;;7.03;2.42;;;;;;;13.78;63.92;100913.56;5023374;28;20061;-58
2023/04/11 02:12:58;;;;;;;7.95;2.83;;;;;;;13.77;63.46;100914.56;5023369;28;20420;-58
2023/04/11 02:15:23;;;;;;;5.53;2.42;;;;;;;13.78;63.71;100918.06;5023827;28;20124;-58
2023/04/11 02:17:52;;;;;;;9.38;2.63;;;;;;;13.77;63.51;100911.03;5022988;28;20412;-58
2023/04/11 02:20:20;;;;;;;7.95;2.47;;;;;;;13.77;63.81;100911.03;5023118;28;20501;-58
2023/04/11 02:22:46;;;;;;;7.93;2.15;;;;;;;13.77;63.30;100913.72;5023088;28;20493;-58
2023/04/11 02:25:12;;;;;;;9.10;2.58;;;;;;;13.78;63.52;100915.41;5022728;28;20029;-58
2023/04/11 02:27:37;;;;;;;6.85;2.90;;;;;;;13.76;63.38;100920.00;5022780;28;20104;-58
2023/04/11 02:30:06;;;;;;;7.22;2.70;;;;;;;13.77;63.77;100908.34;5022753;28;20112;-58
2023/04/11 02:32:36;;;;;;;8.85;2.65;;;;;;;13.75;63.69;100918.31;5026235;28;20426;-58
2023/04/11 02:35:02;;;;;;;6.45;2.80;;;;;;;13.76;63.71;100925.38;5019463;28;20447;-58
2023/04/11 02:37:28;;;;;;;7.85;2.80;;;;;;;13.76;63.23;100922.69;5022856;28;20092;-58
2023/04/11 02:39:54;;;;;;;6.28;2.70;;;;;;;13.76;63.23;100925.38;5021944;28;20029;-58
2023/04/11 02:42:20;;;;;;;6.50;2.60;;;;;;;13.76;63.78;100914.66;5022178;28;20068;-58
2023/04/11 02:44:45;;;;;;;4.82;2.25;;;;;;;13.75;63.30;100919.16;5022661;28;20109;-58
2023/04/11 02:47:10;;;;;;;8.05;2.42;;;;;;;13.75;63.60;100911.16;5022674;28;20464;-58
2023/04/11 02:49:36;;;;;;;6.32;2.78;;;;;;;13.75;63.68;100929.03;5022601;28;20491;-58
2023/04/11 02:52:01;;;;;;;7.68;2.13;;;;;;;13.75;63.19;100931.72;5018577;28;20141;-58
2023/04/11 02:54:27;;;;;;;5.00;2.20;;;;;;;13.75;63.42;100929.03;5022990;28;20034;-58
2023/04/11 02:56:54;;;;;;;9.75;2.80;;;;;;;13.75;63.52;100929.88;5021545;28;20041;-58
2023/04/11 02:59:20;;;;;;;8.65;2.50;;;;;;;13.75;63.12;100934.38;5027773;28;20081;-58
2023/04/11 03:01:45;;;;;;;8.60;2.75;;;;;;;13.75;63.48;100931.72;5022910;28;20434;-58
2023/04/11 03:04:11;;;;;;;8.50;2.85;;;;;;;13.74;63.17;100927.31;5022435;28;20041;-58
2023/04/11 03:06:36;;;;;;;10.18;2.38;;;;;;;13.74;63.04;100935.34;5028252;28;20037;-58
2023/04/11 03:09:02;;;;;;;6.18;2.55;;;;;;;13.74;63.42;100932.66;5022692;28;20037;-58
2023/04/11 03:11:28;;;;;;;6.78;2.50;;;;;;;13.74;63.10;100943.38;5022895;28;20116;-58
2023/04/11 03:13:53;;;;;;;8.85;2.67;;;;;;;13.74;63.08;100932.66;5022411;28;20121;-58
2023/04/11 03:16:19;;;;;;;6.55;2.40;;;;;;;13.73;63.46;100937.16;5022309;28;20063;-58
2023/04/11 03:18:44;;;;;;;6.78;2.28;;;;;;;13.73;63.43;100937.16;5022118;28;20071;-58
2023/04/11 03:21:10;;;;;;;6.85;2.30;;;;;;;13.73;63.43;100942.53;5022272;28;20034;-58
2023/04/11 03:23:39;;;;;;;7.93;2.40;;;;;;;13.73;63.17;100947.88;5022721;28;20041;-58
2023/04/11 03:26:05;;;;;;;6.57;2.15;;;;;;;13.73;63.21;100952.34;5022514;28;20467;-58
2023/04/11 03:28:31;;;;;;;10.50;2.45;;;;;;;13.73;63.48;100957.69;5021736;28;20040;-58
2023/04/11 03:30:56;;;;;;;7.22;2.45;;;;;;;13.73;63.42;100969.28;5022818;28;20029;-58
2023/04/11 03:33:21;;;;;;;8.65;2.50;;;;;;;13.74;63.61;100970.13;5025001;28;20121;-58
2023/04/11 03:35:47;;;;;;;7.57;2.42;;;;;;;13.72;63.44;100964.88;5022145;28;20033;-58
2023/04/11 03:38:12;;;;;;;6.25;2.13;;;;;;;13.73;63.01;100965.72;5022127;28;20483;-58
2023/04/11 03:40:37;;;;;;;5.03;2.20;;;;;;;13.73;63.32;100968.41;5022368;28;20029;-58
2023/04/11 03:43:03;;;;;;;6.25;1.67;;;;;;;13.72;63.29;100974.75;5022301;28;20042;-58
2023/04/11 03:45:28;;;;;;;7.57;2.22;;;;;;;13.71;63.36;100973.03;5023854;28;20029;-58
2023/04/11 03:47:54;;;;;;;6.35;2.28;;;;;;;13.70;63.29;100972.19;5025872;28;20033;-58
2023/04/11 03:50:19;;;;;;;5.80;2.25;;;;;;;13.71;63.24;100978.38;5025938;28;20545;-58
2023/04/11 03:52:44;;;;;;;5.28;1.70;;;;;;;13.69;63.31;100982.03;5025858;28;20026;-58
2023/04/11 03:55:11;;;;;;;9.85;2.50;;;;;;;13.69;63.25;100979.34;5028622;28;20108;-58
2023/04/11 03:57:36;;;;;;;6.68;1.98;;;;;;;13.69;63.27;100979.34;5025698;28;20124;-58
2023/04/11 04:00:04;;;;;;;6.75;2.25;;;;;;;13.71;63.34;100975.69;5029392;28;20081;-58
2023/04/11 04:02:30;;;;;;;6.13;1.90;;;;;;;13.69;63.10;100979.34;5023754;28;20077;-58
2023/04/11 04:04:57;;;;;;;6.38;2.42;;;;;;;13.69;62.88;100984.72;5026703;28;20034;-58
2023/04/11 04:07:26;;;;;;;4.72;1.60;;;;;;;13.69;62.87;100989.22;5024341;28;20060;-58
2023/04/11 04:09:52;;;;;;;3.90;1.77;;;;;;;13.68;63.02;100988.34;5025472;28;20056;-58
2023/04/11 04:12:18;;;;;;;5.15;1.92;;;;;;;13.69;63.34;100983.88;5025364;28;20033;-58
2023/04/11 04:14:45;;;;;;;5.80;1.73;;;;;;;13.68;62.97;100987.50;5025211;28;20033;-58
2023/04/11 04:17:12;;;;;;;5.20;1.60;;;;;;;13.68;62.97;100990.16;5025053;28;20075;-58
2023/04/11 04:19:37;;;;;;;6.25;2.10;;;;;;;13.69;62.89;100991.88;5025268;28;20052;-58
2023/04/11 04:22:03;;;;;;;5.68;1.73;;;;;;;13.68;62.96;100999.03;5025172;28;20475;-58
2023/04/11 04:24:28;;;;;;;6.18;1.80;;;;;;;13.68;63.04;100995.53;5025337;28;20112;-58
2023/04/11 04:26:56;;;;;;;3.50;1.70;;;;;;;13.68;63.16;101001.72;5024067;28;20037;-58
2023/04/11 04:29:22;;;;;;;5.82;1.77;;;;;;;13.66;62.93;101000.97;5025257;28;20033;-58
2023/04/11 04:31:51;;;;;;;4.70;1.67;;;;;;;13.67;63.26;100996.50;5024680;28;20372;-58
2023/04/11 04:34:20;;;;;;;5.35;1.92;;;;;;;13.67;62.56;101010.72;5025067;28;20049;-58
2023/04/11 04:36:47;;;;;;;5.50;1.55;;;;;;;13.66;62.68;101006.34;5025124;28;20112;-58
2023/04/11 04:39:17;;;;;;;4.68;1.70;;;;;;;13.67;63.06;101012.56;5024889;28;20061;-58
2023/04/11 04:41:44;;;;;;;4.97;1.80;;;;;;;13.67;62.82;101015.25;5020932;28;20029;-58
2023/04/11 04:44:10;;;;;;;5.38;1.63;;;;;;;13.66;63.11;101022.38;5025012;28;20065;-58
2023/04/11 04:46:35;;;;;;;3.67;1.70;;;;;;;13.66;62.71;101017.03;5021856;28;20437;-58
2023/04/11 04:49:04;;;;;;;4.80;1.67;;;;;;;13.66;63.00;101025.06;5027144;28;20034;-58
2023/04/11 04:51:29;;;;;;;3.53;1.38;;;;;;;13.66;62.89;101032.25;5025087;28;20040;-58
2023/04/11 04:53:56;;;;;;;4.43;1.73;;;;;;;13.66;62.70;101034.91;5024394;28;20116;-58
2023/04/11 04:56:22;;;;;;;5.20;1.58;;;;;;;13.66;62.69;101035.75;5023127;28;20034;-58
2023/04/11 04:58:47;;;;;;;6.28;2.30;;;;;;;13.65;62.85;101039.41;5027612;28;20080;-58
2023/04/11 05:01:13;;;;;;;4.10;1.90;;;;;;;13.65;62.69;101050.13;5032259;28;20456;-58
2023/04/11 05:03:38;;;;;;;5.15;1.45;;;;;;;13.66;62.79;101050.97;5031487;28;20391;-58
2023/04/11 05:06:05;;;;;;;3.70;1.88;;;;;;;13.66;62.99;101064.34;5031174;28;20390;-58
2023/04/11 05:08:30;;;;;;;2.85;1.00;;;;;;;13.65;62.34;101050.13;5032619;28;20479;-58
2023/04/11 05:10:56;;;;;;;6.18;1.55;;;;;;;13.66;62.68;101070.53;5031314;28;20026;-58
2023/04/11 05:13:21;;;;;;;5.07;1.60;;;;;;;13.66;62.64;101067.88;5026643;28;20395;-58
2023/04/11 05:15:48;;;;;;;4.05;1.35;;;;;;;13.65;62.88;101068.84;5030732;28;20100;-58
2023/04/11 05:18:13;;;;;;;5.78;1.55;;;;;;;13.65;62.54;101068.84;5030440;28;20053;-58
2023/04/11 05:20:39;;;;;;;7.00;1.50;;;;;;;13.66;62.95;101069.69;5031594;28;20061;-58
2023/04/11 05:23:04;;;;;;;4.18;1.50;;;;;;;13.66;62.75;101080.41;5032034;28;20112;-58
2023/04/11 05:25:29;;;;;;;3.00;1.40;;;;;;;13.66;62.58;101083.94;5031922;28;20033;-58
2023/04/11 05:27:55;;;;;;;5.35;1.83;;;;;;;13.66;62.84;101075.06;5028837;28;20037;-58
2023/04/11 05:30:20;;;;;;;5.50;1.60;;;;;;;13.65;63.06;101082.22;5026500;28;20531;-58
2023/04/11 05:32:46;;;;;;;3.70;1.42;;;;;;;13.65;62.89;101086.72;5029555;28;20029;-58
2023/04/11 05:35:11;;;;;;;3.00;1.40;;;;;;;13.65;62.72;101087.59;5027707;28;20036;-58
2023/04/11 05:37:37;;;;;;;5.10;1.65;;;;;;;13.64;62.62;101091.22;5024122;28;20124;-58
2023/04/11 05:40:03;;;;;;;5.45;1.70;;;;;;;13.64;62.85;101093.88;5024702;28;20038;-58
2023/04/11 05:42:28;;;;;;;6.43;1.55;;;;;;;13.63;62.47;101094.88;5024488;28;20051;-58
2023/04/11 05:44:53;;;;;;;5.78;1.40;;;;;;;13.63;62.78;101097.53;5027652;28;20446;-58
2023/04/11 05:47:19;;;;;;;5.28;1.48;;;;;;;13.64;62.72;101106.41;5023495;28;20043;-58
2023/04/11 05:49:44;;;;;;;7.07;1.30;;;;;;;13.63;62.80;101108.25;5023213;28;20060;-58
2023/04/11 05:52:10;;;;;;;7.03;1.70;;;;;;;13.63;62.79;101107.38;5023526;28;20068;-58
2023/04/11 05:54:36;;;;;;;2.85;1.05;;;;;;;13.64;62.79;101111.78;5024061;28;20054;-58
2023/04/11 05:57:02;;;;;;;4.63;1.70;;;;;;;13.62;62.85;101117.22;5026709;28;20030;-58
2023/04/11 05:59:30;;;;;;;4.82;1.55;;;;;;;13.62;62.65;101125.25;5023704;28;20119;-58
2023/04/11 06:01:56;;;;;;;3.65;1.50;;;;;;;13.63;62.74;101124.31;5023209;28;20060;-58
2023/04/11 06:04:21;;;;;;;4.75;1.65;;;;;;;13.63;62.68;101124.31;5023669;28;20428;-58
2023/04/11 06:06:47;;;;;;;3.40;1.05;;;;;;;13.63;62.60;101129.66;5024016;28;20037;-58
2023/04/11 06:09:12;;;;;;;3.03;1.27;;;;;;;13.63;62.49;101129.66;5022145;28;20040;-58
2023/04/11 06:11:37;;;;;;;3.92;1.45;;;;;;;13.63;62.39;101135.00;5022980;28;20044;-58
2023/04/11 06:14:03;;;;;;;2.63;1.05;;;;;;;13.62;62.72;101138.63;5022970;28;20068;-58
2023/04/11 06:16:30;;;;;;;4.45;1.20;;;;;;;13.62;62.66;101138.63;5023106;28;20095;-58
2023/04/11 06:18:56;;;;;;;4.78;1.48;;;;;;;13.63;62.75;101145.72;5023532;28;20471;-58
2023/04/11 06:21:21;;;;;;;4.78;1.67;;;;;;;13.62;62.43;101143.97;5023586;28;20112;-58
2023/04/11 06:23:46;;;;;;;7.57;1.50;;;;;;;13.62;62.46;101138.63;5021687;28;20029;-58
2023/04/11 06:26:12;;;;;;;5.45;1.30;;;;;;;13.62;62.62;101145.81;5025164;28;20033;-58
2023/04/11 06:28:37;;;;;;;4.03;1.30;;;;;;;13.61;62.48;101142.28;5024092;28;20048;-58
2023/04/11 06:31:02;;;;;;;5.60;1.23;;;;;;;13.62;62.74;101140.47;5022595;28;20037;-58
2023/04/11 06:33:28;;;;;;;4.10;1.20;;;;;;;13.61;62.51;101144.97;5024651;28;20437;-58
2023/04/11 06:35:53;;;;;;;5.18;1.17;;;;;;;13.61;62.29;101142.28;5023320;28;20042;-58
2023/04/11 06:38:18;;;;;;;3.20;1.35;;;;;;;13.61;62.60;101146.75;5023209;28;20045;-58
2023/04/11 06:40:44;;;;;;;2.97;1.10;;;;;;;13.62;62.55;101148.50;5022416;28;20029;-58
2023/04/11 06:43:10;;;;;;;3.92;1.30;;;;;;;13.61;62.49;101152.13;5024026;28;20034;-58
2023/04/11 06:45:35;;;;;;;3.60;1.25;;;;;;;13.60;62.23;101153.94;5023065;28;20029;-58
2023/04/11 06:48:00;;;;;;;5.97;1.75;;;;;;;13.62;62.26;101148.50;5026769;28;20084;-58
2023/04/11 06:50:26;;;;;;;6.50;1.40;;;;;;;13.60;62.41;101145.91;5025898;28;20506;-58
2023/04/11 06:52:51;;;;;;;6.45;1.67;;;;;;;13.60;62.29;101159.28;5023138;28;20069;-58
2023/04/11 06:55:17;;;;;;;4.22;1.17;;;;;;;13.61;62.12;101158.34;5023014;28;20026;-58
2023/04/11 06:57:42;;;;;;;4.88;1.35;;;;;;;13.60;62.27;101159.28;5023229;28;20092;-58
2023/04/11 07:00:08;;;;;;;4.50;1.27;;;;;;;13.61;62.25;101170.84;5023278;28;20045;-58
2023/04/11 07:02:38;;;;;;;3.13;1.38;;;;;;;13.60;62.53;101178.03;5023373;28;20053;-58
2023/04/11 07:05:04;;;;;;;7.53;1.58;;;;;;;13.60;62.00;101172.66;5022243;28;20030;-58
2023/04/11 07:07:30;;;;;;;5.38;1.15;;;;;;;13.59;62.48;101160.25;5022886;28;20112;-58
2023/04/11 07:09:56;;;;;;;2.53;1.20;;;;;;;13.59;62.76;101168.28;5023308;28;20069;-58
2023/04/11 07:12:21;;;;;;;2.83;1.00;;;;;;;13.61;62.49;101185.09;5021787;28;20029;-58
2023/04/11 07:14:46;;;;;;;6.90;1.42;;;;;;;13.61;62.12;101178.88;5021685;28;20468;-58
2023/04/11 07:17:12;;;;;;;6.50;1.17;;;;;;;13.60;62.24;101186.03;5022752;28;20034;-58
2023/04/11 07:19:37;;;;;;;3.65;0.95;;;;;;;13.60;62.38;101190.56;5025080;28;20167;-58
2023/04/11 07:22:03;;;;;;;5.78;1.70;;;;;;;13.60;61.98;101188.72;5026900;28;20112;-58
2023/04/11 07:24:29;;;;;;;5.38;1.50;;;;;;;13.59;61.90;101192.34;5026898;28;20030;-58
2023/04/11 07:26:57;;;;;;;4.43;1.52;;;;;;;13.61;61.92;101189.56;5026727;28;20034;-57
2023/04/11 07:29:22;;;;;;;3.30;1.35;;;;;;;13.61;61.90;101198.47;5026614;28;20034;-58
2023/04/11 07:31:48;;;;;;;4.85;1.58;;;;;;;13.61;62.25;101197.59;5030307;28;20032;-57
2023/04/11 07:34:14;;;;;;;2.97;1.23;;;;;;;13.61;62.31;101195.81;5026738;28;20120;-58
2023/04/11 07:36:40;;;;;;;6.05;1.40;;;;;;;13.62;62.27;101207.34;5027156;28;20476;-58
2023/04/11 07:39:08;;;;;;;6.05;1.50;;;;;;;13.61;62.01;101210.97;5030788;28;20084;-58
2023/04/11 07:41:35;;;;;;;2.35;1.10;;;;;;;13.61;62.26;101205.63;5026575;28;20025;-58
2023/04/11 07:44:01;;;;;;;2.90;1.20;;;;;;;13.60;61.70;101212.81;5026475;28;20037;-58
2023/04/11 07:46:26;;;;;;;3.97;1.30;;;;;;;13.60;61.73;101210.13;5026430;28;20036;-58
2023/04/11 07:48:52;;;;;;;4.75;1.52;;;;;;;13.61;62.27;101206.50;5026342;28;20033;-58
2023/04/11 07:51:17;;;;;;;6.65;1.58;;;;;;;13.61;61.89;101202.94;5026332;28;20073;-58
2023/04/11 07:53:43;;;;;;;3.40;1.20;;;;;;;13.61;61.70;101206.50;5026313;28;20038;-58
2023/04/11 07:56:09;;;;;;;6.70;1.35;;;;;;;13.61;62.05;101211.84;5026598;28;20383;-58
2023/04/11 07:58:34;;;;;;;3.50;0.98;;;;;;;13.62;62.38;101207.34;5029053;28;20049;-58
2023/04/11 08:01:01;;;;;;;4.28;1.27;;;;;;;13.60;62.14;101207.44;5026216;28;20391;-58
2023/04/11 08:03:27;;;;;;;2.90;1.23;;;;;;;13.62;61.88;101207.34;5026397;28;20060;-58
2023/04/11 08:05:52;;;;;;;4.18;1.25;;;;;;;13.61;62.13;101206.50;5026332;28;20464;-57
2023/04/11 08:08:18;;;;;;;5.20;1.33;;;;;;;13.61;62.24;101206.50;5026316;28;20022;-58
2023/04/11 08:10:43;;;;;;;3.78;1.23;;;;;;;13.62;61.79;101229.59;5024524;28;20490;-58
2023/04/11 08:13:09;;;;;;;5.43;1.15;;;;;;;13.62;61.76;101229.59;5026525;28;20399;-58
2023/04/11 08:15:35;;;;;;;4.82;1.20;;;;;;;13.63;61.75;101230.44;5032577;28;20112;-58
2023/04/11 08:18:01;;;;;;;4.97;1.67;;;;;;;13.62;62.11;101234.94;5025738;28;20471;-58
2023/04/11 08:20:26;;;;;;;2.65;0.90;;;;;;;13.63;61.79;101238.47;5025788;28;20042;-58
2023/04/11 08:22:52;;;;;;;3.67;1.23;;;;;;;13.63;61.71;101230.44;5025781;28;20052;-58
2023/04/11 08:25:24;;;;;;;4.45;1.60;;;;;;;13.63;61.66;101241.16;5026017;28;20029;-58
2023/04/11 08:27:50;;;;;;;3.97;1.25;;;;;;;13.62;61.94;101245.66;5022562;28;20022;-58
2023/04/11 08:30:16;;;;;;;3.55;0.75;;;;;;;13.62;61.90;101251.00;5028042;28;20033;-58
2023/04/11 08:32:42;;;;;;;4.55;1.10;;;;;;;13.63;61.77;101263.44;5029081;28;20379;-58
2023/04/11 08:35:08;;;;;;;7.30;1.52;;;;;;;13.63;61.95;101257.19;5025613;28;20041;-58
2023/04/11 08:37:33;;;;;;;4.13;1.10;;;;;;;13.64;61.73;101259.78;5025658;28;20087;-58
2023/04/11 08:39:58;;;;;;;4.85;1.38;;;;;;;13.64;61.90;101259.78;5028122;28;20033;-58
2023/04/11 08:42:28;;;;;;;3.53;1.33;;;;;;;13.64;62.31;101264.28;5028436;28;20395;-58
2023/04/11 08:44:56;;;;;;;3.75;1.08;;;;;;;13.64;62.00;101265.13;5025582;28;20038;-58
2023/04/11 08:47:22;;;;;;;3.92;1.10;;;;;;;13.64;62.15;101269.63;5025238;28;20399;-58
2023/04/11 08:49:48;;;;;;;5.25;1.25;;;;;;;13.64;61.81;101262.47;5023130;28;20152;-58
2023/04/11 08:52:15;;;;;;;3.97;1.05;;;;;;;13.64;62.01;101267.81;5026768;28;20471;-58
2023/04/11 08:54:40;;;;;;;3.38;0.95;;;;;;;13.65;61.90;101271.34;5025718;28;20456;-58
2023/04/11 08:57:06;;;;;;;3.15;1.00;;;;;;;13.64;62.08;101262.47;5023245;28;20030;-58
2023/04/11 08:59:32;;;;;;;7.10;1.50;;;;;;;13.64;62.14;101266.97;5026910;28;20377;-58
2023/04/11 09:02:08;;;;;;;3.67;1.00;;;;;;;13.64;62.01;101267.81;5025174;28;20079;-58
2023/04/11 09:04:41;;;;;;;3.45;1.13;;;;;;;13.64;61.87;101261.59;5028375;28;20489;-58
2023/04/11 09:07:06;;;;;;;3.15;1.20;;;;;;;13.64;61.87;101256.25;5024070;28;20375;-58
2023/04/11 09:09:33;;;;;;;2.72;1.20;;;;;;;13.63;62.36;101252.72;5025579;28;20087;-58
2023/04/11 09:11:59;;;;;;;2.45;1.13;;;;;;;13.65;61.79;101263.31;5024802;28;20044;-58
2023/04/11 09:14:25;;;;;;;4.07;1.25;;;;;;;13.63;62.17;101263.44;5025104;28;20037;-58
2023/04/11 09:16:58;;;;;;;4.32;1.15;;;;;;;13.64;62.30;101254.44;5030049;28;20407;-58
2023/04/11 09:19:28;;;;;;;6.45;1.17;;;;;;;13.63;62.08;101266.13;5025691;28;20041;-58
2023/04/11 09:21:59;;;;;;;1.63;0.90;;;;;;;13.63;61.82;101263.44;5024905;28;20463;-58
2023/04/11 09:24:25;;;;;;;4.78;1.20;;;;;;;13.64;62.32;101267.81;5024957;28;20038;-58
2023/04/11 09:27:15;;;;;;;3.63;1.10;;;;;;;13.65;62.29;101266.84;5024492;28;20034;-58
2023/04/11 09:29:47;;;;;;;3.42;1.10;;;;;;;13.64;62.17;101275.84;5024459;28;20472;-58
2023/04/11 09:32:32;;;;;;;6.45;1.25;;;;;;;13.66;62.02;101279.25;5022402;28;20033;-58
2023/04/11 09:35:27;;;;;;;4.28;1.20;;;;;;;13.67;62.29;101269.44;5024004;28;20029;-58
2023/04/11 09:37:59;;;;;;;3.75;1.00;;;;;;;13.66;62.21;101278.41;5022477;28;20491;-58
2023/04/11 09:40:26;;;;;;;3.65;0.95;;;;;;;13.66;62.35;101275.72;5024599;28;20425;-57
2023/04/11 09:42:57;;;;;;;4.22;1.20;;;;;;;13.66;62.07;101279.25;5023258;28;20088;-58
2023/04/11 09:45:24;;;;;;;2.72;1.08;;;;;;;13.67;62.02;101283.66;5024638;28;20454;-58
2023/04/11 09:47:53;;;;;;;5.13;1.40;;;;;;;13.66;61.96;101281.94;5024311;28;20026;-58
2023/04/11 09:50:18;;;;;;;3.83;1.13;;;;;;;13.66;62.16;101284.59;5024058;28;20040;-58
2023/04/11 09:52:45;;;;;;;3.88;0.90;;;;;;;13.67;61.83;101282.81;5024461;28;20045;-58
2023/04/11 09:55:21;;;;;;;2.92;0.90;;;;;;;13.67;62.00;101286.34;5028002;28;20033;-58
2023/04/11 09:57:48;;;;;;;3.80;1.15;;;;;;;13.68;61.86;101288.03;5024825;28;20148;-58
2023/04/11 10:00:17;;;;;;;3.30;0.90;;;;;;;13.68;62.21;101284.50;5024273;28;20050;-58
2023/04/11 10:02:45;;;;;;;5.30;1.23;;;;;;;13.67;61.93;101280.97;5023270;28;20464;-58
2023/04/11 10:05:13;;;;;;;4.47;1.10;;;;;;;13.68;62.04;101298.72;5024015;28;20044;-58
2023/04/11 10:07:54;;;;;;;3.47;1.15;;;;;;;13.68;62.39;101285.34;5024156;28;20478;-58
2023/04/11 10:10:21;;;;;;;4.45;0.80;;;;;;;13.67;62.05;101305.06;5024151;28;20078;-58
2023/04/11 10:12:48;;;;;;;3.97;0.90;;;;;;;13.67;62.09;101278.31;5023842;28;20036;-58
2023/04/11 10:15:14;;;;;;;4.63;1.40;;;;;;;13.68;61.93;101287.19;5026282;28;20048;-58
2023/04/11 10:17:40;;;;;;;1.90;0.88;;;;;;;13.69;62.00;101300.47;5023984;28;20037;-58
2023/04/11 10:20:43;;;;;;;3.50;0.95;;;;;;;13.73;62.39;101289.53;5023924;28;20037;-58
2023/04/11 10:23:10;;;;;;;4.40;1.05;;;;;;;13.70;61.92;101290.59;5023855;28;20071;-58
2023/04/11 10:25:58;;;;;;;3.70;1.10;;;;;;;13.73;62.09;101289.53;5023500;28;20115;-58
2023/04/11 10:28:38;;;;;;;3.78;1.05;;;;;;;13.72;62.45;101291.34;5023716;28;20506;-58
2023/04/11 10:31:06;;;;;;;3.40;1.10;;;;;;;13.71;62.44;101280.75;5021299;28;20025;-58
2023/04/11 10:33:32;;;;;;;3.95;1.35;;;;;;;13.71;62.33;101286.97;5021468;28;20392;-58
2023/04/11 10:36:02;;;;;;;1.70;0.77;;;;;;;13.72;61.98;101294.03;5023245;28;20037;-58
2023/04/11 10:38:40;;;;;;;3.05;1.30;;;;;;;13.73;62.15;101278.81;5023132;28;20034;-58
2023/04/11 10:41:32;;;;;;;3.40;1.08;;;;;;;13.73;62.29;101287.72;5024362;28;20037;-58
2023/04/11 10:44:19;;;;;;;3.13;1.48;;;;;;;13.74;62.41;101296.59;5023501;28;20127;-58
2023/04/11 10:46:52;;;;;;;1.88;0.73;;;;;;;13.72;62.43;101296.72;5023369;28;20029;-58
2023/04/11 10:49:38;;;;;;;3.47;0.95;;;;;;;13.75;62.17;101295.66;5023408;28;20419;-58
2023/04/11 10:52:23;;;;;;;4.32;1.30;;;;;;;13.74;62.55;101308.16;5023446;28;20522;-58
2023/04/11 10:54:50;;;;;;;2.00;1.08;;;;;;;13.73;62.58;101294.88;5025333;28;20033;-58
2023/04/11 10:57:16;;;;;;;1.77;0.75;;;;;;;13.72;62.22;101302.06;5020844;28;20403;-58
2023/04/11 10:59:41;;;;;;;5.78;1.00;;;;;;;13.73;62.64;101294.88;5025182;28;20061;-58
2023/04/11 11:02:07;;;;;;;3.22;1.05;;;;;;;13.72;62.35;101291.34;5022936;28;20044;-58
2023/04/11 11:04:35;;;;;;;4.40;1.38;;;;;;;13.72;62.23;101309.25;5023373;28;20036;-58
2023/04/11 11:07:03;;;;;;;2.92;0.95;;;;;;;13.73;62.31;101294.88;5023247;28;20024;-58
2023/04/11 11:09:29;;;;;;;4.32;1.10;;;;;;;13.73;62.46;101308.25;5023072;28;20479;-58
2023/04/11 11:12:09;;;;;;;3.55;0.93;;;;;;;13.74;62.84;101300.13;5023049;28;20120;-58
2023/04/11 11:14:35;;;;;;;2.15;1.08;;;;;;;13.72;62.65;101288.69;5022963;28;20037;-58
2023/04/11 11:17:01;;;;;;;5.50;1.40;;;;;;;13.74;62.65;101296.59;5022751;28;20029;-58
2023/04/11 11:19:28;;;;;;;2.75;1.05;;;;;;;13.72;62.46;101296.72;5023143;28;20034;-58
2023/04/11 11:21:54;;;;;;;2.05;1.00;;;;;;;13.73;62.73;101294.88;5022812;28;20480;-58
2023/04/11 11:24:25;;;;;;;4.70;1.10;;;;;;;13.73;62.55;101298.44;5023223;28;20040;-58